sensor_id;sensor_type;location;lat;lon;timestamp;P1;durP1;ratioP1;P2;durP2;ratioP2
43626;SDS011;29217;52.586;13.442;2023-02-08T00:01:13;57.10;;;22.45;;
43626;SDS011;29217;52.586;13.442;2023-02-08T00:03:39;57.45;;;22.48;;
43626;SDS011;29217;52.586;13.442;2023-02-08T00:06:06;60.90;;;21.23;;
43626;SDS011;29217;52.586;13.442;2023-02-08T00:08:33;56.65;;;19.90;;
43626;SDS011;29217;52.586;13.442;2023-02-08T00:11:00;53.10;;;21.60;;
43626;SDS011;29217;52.586;13.442;2023-02-08T00:13:26;50.95;;;19.95;;
43626;SDS011;29217;52.586;13.442;2023-02-08T00:15:52;48.30;;;19.92;;
43626;SDS011;29217;52.586;13.442;2023-02-08T00:18:19;50.92;;;19.48;;
43626;SDS011;29217;52.586;13.442;2023-02-08T00:20:45;48.40;;;19.38;;
43626;SDS011;29217;52.586;13.442;2023-02-08T00:23:11;40.10;;;18.52;;
43626;SDS011;29217;52.586;13.442;2023-02-08T00:25:38;47.03;;;18.95;;
43626;SDS011;29217;52.586;13.442;2023-02-08T00:28:04;44.55;;;17.98;;
43626;SDS011;29217;52.586;13.442;2023-02-08T00:30:31;40.65;;;18.05;;
43626;SDS011;29217;52.586;13.442;2023-02-08T00:32:57;46.08;;;18.63;;
43626;SDS011;29217;52.586;13.442;2023-02-08T00:35:25;46.10;;;18.20;;
43626;SDS011;29217;52.586;13.442;2023-02-08T00:37:51;40.15;;;18.10;;
43626;SDS011;29217;52.586;13.442;2023-02-08T00:40:17;37.38;;;18.33;;
43626;SDS011;29217;52.586;13.442;2023-02-08T00:42:43;47.22;;;18.17;;
43626;SDS011;29217;52.586;13.442;2023-02-08T00:45:09;47.97;;;17.65;;
43626;SDS011;29217;52.586;13.442;2023-02-08T00:47:35;44.70;;;18.00;;
43626;SDS011;29217;52.586;13.442;2023-02-08T00:50:01;45.92;;;18.85;;
43626;SDS011;29217;52.586;13.442;2023-02-08T00:52:27;42.78;;;18.02;;
43626;SDS011;29217;52.586;13.442;2023-02-08T00:54:53;38.70;;;17.50;;
43626;SDS011;29217;52.586;13.442;2023-02-08T00:57:19;43.70;;;18.02;;
43626;SDS011;29217;52.586;13.442;2023-02-08T00:59:45;43.20;;;16.83;;
43626;SDS011;29217;52.586;13.442;2023-02-08T01:02:11;41.95;;;18.13;;
43626;SDS011;29217;52.586;13.442;2023-02-08T01:04:37;40.75;;;19.13;;
43626;SDS011;29217;52.586;13.442;2023-02-08T01:07:03;33.20;;;15.40;;
43626;SDS011;29217;52.586;13.442;2023-02-08T01:09:29;39.65;;;17.77;;
43626;SDS011;29217;52.586;13.442;2023-02-08T01:11:56;38.42;;;17.63;;
43626;SDS011;29217;52.586;13.442;2023-02-08T01:14:22;38.15;;;16.40;;
43626;SDS011;29217;52.586;13.442;2023-02-08T01:16:48;48.35;;;17.67;;
43626;SDS011;29217;52.586;13.442;2023-02-08T01:19:14;42.63;;;18.42;;
43626;SDS011;29217;52.586;13.442;2023-02-08T01:21:41;47.10;;;17.80;;
43626;SDS011;29217;52.586;13.442;2023-02-08T01:24:07;51.42;;;19.70;;
43626;SDS011;29217;52.586;13.442;2023-02-08T01:26:34;49.10;;;19.20;;
43626;SDS011;29217;52.586;13.442;2023-02-08T01:29:00;46.40;;;17.67;;
43626;SDS011;29217;52.586;13.442;2023-02-08T01:31:30;46.55;;;17.70;;
43626;SDS011;29217;52.586;13.442;2023-02-08T01:33:57;53.17;;;18.85;;
43626;SDS011;29217;52.586;13.442;2023-02-08T01:36:23;42.97;;;17.33;;
43626;SDS011;29217;52.586;13.442;2023-02-08T01:38:49;47.47;;;16.67;;
43626;SDS011;29217;52.586;13.442;2023-02-08T01:41:16;28.05;;;13.48;;
43626;SDS011;29217;52.586;13.442;2023-02-08T01:46:28;27.48;;;14.30;;
43626;SDS011;29217;52.586;13.442;2023-02-08T01:48:55;37.95;;;14.75;;
43626;SDS011;29217;52.586;13.442;2023-02-08T01:51:24;36.63;;;14.80;;
43626;SDS011;29217;52.586;13.442;2023-02-08T01:53:52;29.10;;;14.85;;
43626;SDS011;29217;52.586;13.442;2023-02-08T01:56:26;37.13;;;14.38;;
43626;SDS011;29217;52.586;13.442;2023-02-08T01:58:54;29.85;;;13.68;;
43626;SDS011;29217;52.586;13.442;2023-02-08T02:01:20;28.20;;;13.70;;
43626;SDS011;29217;52.586;13.442;2023-02-08T02:03:47;35.42;;;13.55;;
43626;SDS011;29217;52.586;13.442;2023-02-08T02:06:15;30.10;;;13.98;;
43626;SDS011;29217;52.586;13.442;2023-02-08T02:08:44;34.50;;;14.10;;
43626;SDS011;29217;52.586;13.442;2023-02-08T02:11:14;28.85;;;14.60;;
43626;SDS011;29217;52.586;13.442;2023-02-08T02:13:40;37.50;;;14.57;;
43626;SDS011;29217;52.586;13.442;2023-02-08T02:16:06;45.92;;;16.05;;
43626;SDS011;29217;52.586;13.442;2023-02-08T02:18:32;56.65;;;17.08;;
43626;SDS011;29217;52.586;13.442;2023-02-08T02:21:12;56.58;;;18.30;;
43626;SDS011;29217;52.586;13.442;2023-02-08T02:26:32;66.00;;;20.48;;
43626;SDS011;29217;52.586;13.442;2023-02-08T02:39:36;55.28;;;16.55;;
43626;SDS011;29217;52.586;13.442;2023-02-08T02:52:50;42.70;;;17.15;;
43626;SDS011;29217;52.586;13.442;2023-02-08T02:55:17;42.13;;;14.77;;
43626;SDS011;29217;52.586;13.442;2023-02-08T02:57:45;38.35;;;15.35;;
43626;SDS011;29217;52.586;13.442;2023-02-08T03:00:15;27.52;;;13.48;;
43626;SDS011;29217;52.586;13.442;2023-02-08T03:02:44;33.30;;;14.43;;
43626;SDS011;29217;52.586;13.442;2023-02-08T03:05:10;40.50;;;14.88;;
43626;SDS011;29217;52.586;13.442;2023-02-08T03:13:03;28.98;;;14.52;;
43626;SDS011;29217;52.586;13.442;2023-02-08T03:15:45;37.08;;;15.02;;
43626;SDS011;29217;52.586;13.442;2023-02-08T03:18:40;35.75;;;15.27;;
43626;SDS011;29217;52.586;13.442;2023-02-08T03:23:32;28.55;;;13.63;;
43626;SDS011;29217;52.586;13.442;2023-02-08T03:26:10;33.75;;;14.93;;
43626;SDS011;29217;52.586;13.442;2023-02-08T03:28:45;35.83;;;13.48;;
43626;SDS011;29217;52.586;13.442;2023-02-08T03:33:50;33.97;;;14.48;;
43626;SDS011;29217;52.586;13.442;2023-02-08T03:38:44;40.70;;;14.63;;
43626;SDS011;29217;52.586;13.442;2023-02-08T03:41:13;25.65;;;12.68;;
43626;SDS011;29217;52.586;13.442;2023-02-08T03:43:44;39.58;;;15.20;;
43626;SDS011;29217;52.586;13.442;2023-02-08T03:46:13;34.53;;;13.75;;
43626;SDS011;29217;52.586;13.442;2023-02-08T03:48:41;39.47;;;16.00;;
43626;SDS011;29217;52.586;13.442;2023-02-08T03:51:10;47.92;;;16.00;;
43626;SDS011;29217;52.586;13.442;2023-02-08T03:53:36;37.80;;;16.05;;
43626;SDS011;29217;52.586;13.442;2023-02-08T03:56:08;34.22;;;15.73;;
43626;SDS011;29217;52.586;13.442;2023-02-08T03:58:52;34.72;;;15.63;;
43626;SDS011;29217;52.586;13.442;2023-02-08T04:01:25;33.67;;;14.15;;
43626;SDS011;29217;52.586;13.442;2023-02-08T04:03:52;30.48;;;13.60;;
43626;SDS011;29217;52.586;13.442;2023-02-08T04:06:18;24.90;;;13.70;;
43626;SDS011;29217;52.586;13.442;2023-02-08T04:08:44;34.60;;;13.80;;
43626;SDS011;29217;52.586;13.442;2023-02-08T04:11:10;31.75;;;13.60;;
43626;SDS011;29217;52.586;13.442;2023-02-08T04:13:36;24.63;;;12.65;;
43626;SDS011;29217;52.586;13.442;2023-02-08T04:16:02;28.25;;;13.48;;
43626;SDS011;29217;52.586;13.442;2023-02-08T04:18:29;28.58;;;12.95;;
43626;SDS011;29217;52.586;13.442;2023-02-08T04:20:54;32.10;;;13.55;;
43626;SDS011;29217;52.586;13.442;2023-02-08T04:23:20;25.13;;;13.55;;
43626;SDS011;29217;52.586;13.442;2023-02-08T04:25:46;26.48;;;13.50;;
43626;SDS011;29217;52.586;13.442;2023-02-08T04:28:12;28.17;;;13.00;;
43626;SDS011;29217;52.586;13.442;2023-02-08T04:30:38;31.75;;;14.30;;
43626;SDS011;29217;52.586;13.442;2023-02-08T04:33:04;27.33;;;13.43;;
43626;SDS011;29217;52.586;13.442;2023-02-08T04:35:30;28.15;;;13.23;;
43626;SDS011;29217;52.586;13.442;2023-02-08T04:37:56;28.35;;;13.18;;
43626;SDS011;29217;52.586;13.442;2023-02-08T04:40:22;29.17;;;12.68;;
43626;SDS011;29217;52.586;13.442;2023-02-08T04:42:48;25.08;;;12.60;;
43626;SDS011;29217;52.586;13.442;2023-02-08T04:45:14;25.92;;;13.07;;
43626;SDS011;29217;52.586;13.442;2023-02-08T04:47:40;30.73;;;13.60;;
43626;SDS011;29217;52.586;13.442;2023-02-08T04:50:06;28.20;;;13.30;;
43626;SDS011;29217;52.586;13.442;2023-02-08T04:52:32;25.00;;;12.88;;
43626;SDS011;29217;52.586;13.442;2023-02-08T04:54:58;33.70;;;13.80;;
43626;SDS011;29217;52.586;13.442;2023-02-08T04:57:24;34.78;;;13.57;;
43626;SDS011;29217;52.586;13.442;2023-02-08T04:59:50;26.98;;;13.82;;
43626;SDS011;29217;52.586;13.442;2023-02-08T05:02:16;32.95;;;14.20;;
43626;SDS011;29217;52.586;13.442;2023-02-08T05:04:42;42.50;;;15.48;;
43626;SDS011;29217;52.586;13.442;2023-02-08T05:07:08;37.80;;;15.30;;
43626;SDS011;29217;52.586;13.442;2023-02-08T05:09:34;37.72;;;16.25;;
43626;SDS011;29217;52.586;13.442;2023-02-08T05:12:00;39.65;;;15.30;;
43626;SDS011;29217;52.586;13.442;2023-02-08T05:14:26;35.63;;;15.10;;
43626;SDS011;29217;52.586;13.442;2023-02-08T05:16:52;44.42;;;16.00;;
43626;SDS011;29217;52.586;13.442;2023-02-08T05:19:18;31.65;;;14.38;;
43626;SDS011;29217;52.586;13.442;2023-02-08T05:21:44;36.70;;;15.02;;
43626;SDS011;29217;52.586;13.442;2023-02-08T05:24:10;33.50;;;15.70;;
43626;SDS011;29217;52.586;13.442;2023-02-08T05:26:36;39.15;;;15.90;;
43626;SDS011;29217;52.586;13.442;2023-02-08T05:29:02;32.15;;;14.02;;
43626;SDS011;29217;52.586;13.442;2023-02-08T05:31:28;28.67;;;12.73;;
43626;SDS011;29217;52.586;13.442;2023-02-08T05:33:54;31.75;;;13.65;;
43626;SDS011;29217;52.586;13.442;2023-02-08T05:36:20;25.55;;;11.38;;
43626;SDS011;29217;52.586;13.442;2023-02-08T05:38:47;28.48;;;12.88;;
43626;SDS011;29217;52.586;13.442;2023-02-08T05:41:14;29.13;;;13.35;;
43626;SDS011;29217;52.586;13.442;2023-02-08T05:43:40;29.73;;;13.05;;
43626;SDS011;29217;52.586;13.442;2023-02-08T05:46:06;29.05;;;12.77;;
43626;SDS011;29217;52.586;13.442;2023-02-08T05:48:32;27.70;;;12.95;;
43626;SDS011;29217;52.586;13.442;2023-02-08T05:50:59;29.52;;;13.23;;
43626;SDS011;29217;52.586;13.442;2023-02-08T05:53:25;29.63;;;14.00;;
43626;SDS011;29217;52.586;13.442;2023-02-08T05:55:51;31.17;;;13.77;;
43626;SDS011;29217;52.586;13.442;2023-02-08T05:58:17;30.60;;;13.35;;
43626;SDS011;29217;52.586;13.442;2023-02-08T06:00:44;33.40;;;13.57;;
43626;SDS011;29217;52.586;13.442;2023-02-08T06:03:10;34.38;;;14.73;;
43626;SDS011;29217;52.586;13.442;2023-02-08T06:05:36;26.05;;;12.95;;
43626;SDS011;29217;52.586;13.442;2023-02-08T06:08:03;33.05;;;14.75;;
43626;SDS011;29217;52.586;13.442;2023-02-08T06:10:29;27.40;;;13.73;;
43626;SDS011;29217;52.586;13.442;2023-02-08T06:12:55;31.08;;;14.60;;
43626;SDS011;29217;52.586;13.442;2023-02-08T06:15:21;34.25;;;14.20;;
43626;SDS011;29217;52.586;13.442;2023-02-08T06:17:47;35.05;;;16.48;;
43626;SDS011;29217;52.586;13.442;2023-02-08T06:20:13;31.85;;;15.27;;
43626;SDS011;29217;52.586;13.442;2023-02-08T06:22:39;30.10;;;13.77;;
43626;SDS011;29217;52.586;13.442;2023-02-08T06:25:05;26.90;;;12.52;;
43626;SDS011;29217;52.586;13.442;2023-02-08T06:27:31;26.83;;;12.40;;
43626;SDS011;29217;52.586;13.442;2023-02-08T06:29:57;29.60;;;14.30;;
43626;SDS011;29217;52.586;13.442;2023-02-08T06:32:23;30.98;;;13.30;;
43626;SDS011;29217;52.586;13.442;2023-02-08T06:34:50;33.40;;;13.63;;
43626;SDS011;29217;52.586;13.442;2023-02-08T06:37:16;34.90;;;13.18;;
43626;SDS011;29217;52.586;13.442;2023-02-08T06:39:42;28.58;;;13.80;;
43626;SDS011;29217;52.586;13.442;2023-02-08T06:42:08;32.20;;;13.55;;
43626;SDS011;29217;52.586;13.442;2023-02-08T06:44:35;31.38;;;13.85;;
43626;SDS011;29217;52.586;13.442;2023-02-08T06:47:01;28.70;;;12.35;;
43626;SDS011;29217;52.586;13.442;2023-02-08T06:49:27;25.90;;;12.02;;
43626;SDS011;29217;52.586;13.442;2023-02-08T06:51:53;27.50;;;13.45;;
43626;SDS011;29217;52.586;13.442;2023-02-08T06:54:19;32.17;;;12.90;;
43626;SDS011;29217;52.586;13.442;2023-02-08T06:56:45;33.85;;;14.25;;
43626;SDS011;29217;52.586;13.442;2023-02-08T06:59:11;28.58;;;13.25;;
43626;SDS011;29217;52.586;13.442;2023-02-08T07:01:37;41.65;;;12.30;;
43626;SDS011;29217;52.586;13.442;2023-02-08T07:04:03;29.65;;;14.02;;
43626;SDS011;29217;52.586;13.442;2023-02-08T07:06:29;32.85;;;14.55;;
43626;SDS011;29217;52.586;13.442;2023-02-08T07:08:56;36.70;;;13.43;;
43626;SDS011;29217;52.586;13.442;2023-02-08T07:11:22;34.53;;;13.43;;
43626;SDS011;29217;52.586;13.442;2023-02-08T07:13:48;33.92;;;14.15;;
43626;SDS011;29217;52.586;13.442;2023-02-08T07:16:15;35.38;;;14.95;;
43626;SDS011;29217;52.586;13.442;2023-02-08T07:18:41;31.90;;;13.57;;
43626;SDS011;29217;52.586;13.442;2023-02-08T07:21:07;32.45;;;14.07;;
43626;SDS011;29217;52.586;13.442;2023-02-08T07:23:35;31.48;;;14.40;;
43626;SDS011;29217;52.586;13.442;2023-02-08T07:26:02;38.25;;;14.85;;
43626;SDS011;29217;52.586;13.442;2023-02-08T07:28:29;40.40;;;15.35;;
43626;SDS011;29217;52.586;13.442;2023-02-08T07:30:55;35.53;;;15.77;;
43626;SDS011;29217;52.586;13.442;2023-02-08T07:33:21;32.95;;;14.15;;
43626;SDS011;29217;52.586;13.442;2023-02-08T07:35:47;36.35;;;16.35;;
43626;SDS011;29217;52.586;13.442;2023-02-08T07:38:13;37.13;;;15.48;;
43626;SDS011;29217;52.586;13.442;2023-02-08T07:40:39;33.60;;;15.25;;
43626;SDS011;29217;52.586;13.442;2023-02-08T07:43:05;31.42;;;14.85;;
43626;SDS011;29217;52.586;13.442;2023-02-08T07:45:31;32.70;;;14.32;;
43626;SDS011;29217;52.586;13.442;2023-02-08T07:47:57;34.58;;;14.77;;
43626;SDS011;29217;52.586;13.442;2023-02-08T07:50:24;34.90;;;15.85;;
43626;SDS011;29217;52.586;13.442;2023-02-08T07:52:50;35.55;;;14.50;;
43626;SDS011;29217;52.586;13.442;2023-02-08T07:55:16;29.80;;;14.07;;
43626;SDS011;29217;52.586;13.442;2023-02-08T07:57:43;31.98;;;14.52;;
43626;SDS011;29217;52.586;13.442;2023-02-08T08:00:09;40.03;;;14.82;;
43626;SDS011;29217;52.586;13.442;2023-02-08T08:02:36;35.00;;;14.70;;
43626;SDS011;29217;52.586;13.442;2023-02-08T08:05:02;37.72;;;15.10;;
43626;SDS011;29217;52.586;13.442;2023-02-08T08:07:28;36.78;;;15.93;;
43626;SDS011;29217;52.586;13.442;2023-02-08T08:09:54;37.78;;;15.07;;
43626;SDS011;29217;52.586;13.442;2023-02-08T08:12:20;40.13;;;15.57;;
43626;SDS011;29217;52.586;13.442;2023-02-08T08:14:48;44.45;;;16.13;;
43626;SDS011;29217;52.586;13.442;2023-02-08T08:17:14;40.20;;;14.90;;
43626;SDS011;29217;52.586;13.442;2023-02-08T08:19:40;34.75;;;15.63;;
43626;SDS011;29217;52.586;13.442;2023-02-08T08:22:06;41.58;;;16.30;;
43626;SDS011;29217;52.586;13.442;2023-02-08T08:24:32;37.92;;;16.00;;
43626;SDS011;29217;52.586;13.442;2023-02-08T08:27:01;31.08;;;15.30;;
43626;SDS011;29217;52.586;13.442;2023-02-08T08:29:27;33.58;;;15.30;;
43626;SDS011;29217;52.586;13.442;2023-02-08T08:31:53;40.38;;;15.63;;
43626;SDS011;29217;52.586;13.442;2023-02-08T08:34:19;36.22;;;16.00;;
43626;SDS011;29217;52.586;13.442;2023-02-08T08:36:46;35.33;;;15.40;;
43626;SDS011;29217;52.586;13.442;2023-02-08T08:39:12;36.70;;;14.40;;
43626;SDS011;29217;52.586;13.442;2023-02-08T08:41:38;33.13;;;15.38;;
43626;SDS011;29217;52.586;13.442;2023-02-08T08:44:04;39.47;;;15.00;;
43626;SDS011;29217;52.586;13.442;2023-02-08T08:46:30;30.92;;;14.73;;
43626;SDS011;29217;52.586;13.442;2023-02-08T08:48:56;33.78;;;14.88;;
43626;SDS011;29217;52.586;13.442;2023-02-08T08:51:22;36.08;;;15.07;;
43626;SDS011;29217;52.586;13.442;2023-02-08T08:53:48;37.83;;;16.02;;
43626;SDS011;29217;52.586;13.442;2023-02-08T08:56:14;36.67;;;16.10;;
43626;SDS011;29217;52.586;13.442;2023-02-08T08:58:40;32.63;;;14.82;;
43626;SDS011;29217;52.586;13.442;2023-02-08T09:01:07;41.08;;;14.95;;
43626;SDS011;29217;52.586;13.442;2023-02-08T09:03:33;37.17;;;15.07;;
43626;SDS011;29217;52.586;13.442;2023-02-08T09:05:59;36.45;;;14.75;;
43626;SDS011;29217;52.586;13.442;2023-02-08T09:08:25;34.17;;;14.50;;
43626;SDS011;29217;52.586;13.442;2023-02-08T09:10:51;37.45;;;17.05;;
43626;SDS011;29217;52.586;13.442;2023-02-08T09:13:17;40.53;;;16.05;;
43626;SDS011;29217;52.586;13.442;2023-02-08T09:15:45;26.73;;;13.02;;
43626;SDS011;29217;52.586;13.442;2023-02-08T09:18:11;35.05;;;15.90;;
43626;SDS011;29217;52.586;13.442;2023-02-08T09:20:37;43.50;;;16.77;;
43626;SDS011;29217;52.586;13.442;2023-02-08T09:23:04;34.47;;;14.15;;
43626;SDS011;29217;52.586;13.442;2023-02-08T09:25:29;31.63;;;14.98;;
43626;SDS011;29217;52.586;13.442;2023-02-08T09:27:57;38.05;;;16.42;;
43626;SDS011;29217;52.586;13.442;2023-02-08T09:30:23;42.22;;;18.10;;
43626;SDS011;29217;52.586;13.442;2023-02-08T09:32:49;39.28;;;15.20;;
43626;SDS011;29217;52.586;13.442;2023-02-08T09:35:15;37.65;;;13.98;;
43626;SDS011;29217;52.586;13.442;2023-02-08T09:37:41;41.50;;;17.17;;
43626;SDS011;29217;52.586;13.442;2023-02-08T09:40:11;39.35;;;16.17;;
43626;SDS011;29217;52.586;13.442;2023-02-08T09:42:45;38.45;;;16.25;;
43626;SDS011;29217;52.586;13.442;2023-02-08T09:50:43;34.35;;;15.48;;
43626;SDS011;29217;52.586;13.442;2023-02-08T09:53:12;39.28;;;15.88;;
43626;SDS011;29217;52.586;13.442;2023-02-08T09:55:42;37.42;;;15.85;;
43626;SDS011;29217;52.586;13.442;2023-02-08T09:58:16;36.60;;;16.40;;
43626;SDS011;29217;52.586;13.442;2023-02-08T10:00:44;34.75;;;14.35;;
43626;SDS011;29217;52.586;13.442;2023-02-08T10:03:22;34.97;;;15.52;;
43626;SDS011;29217;52.586;13.442;2023-02-08T10:05:50;29.48;;;14.05;;
43626;SDS011;29217;52.586;13.442;2023-02-08T10:08:16;40.67;;;16.35;;
43626;SDS011;29217;52.586;13.442;2023-02-08T10:13:22;37.58;;;16.38;;
43626;SDS011;29217;52.586;13.442;2023-02-08T10:15:52;37.70;;;16.33;;
43626;SDS011;29217;52.586;13.442;2023-02-08T10:23:49;29.30;;;14.43;;
43626;SDS011;29217;52.586;13.442;2023-02-08T10:29:06;39.45;;;16.23;;
43626;SDS011;29217;52.586;13.442;2023-02-08T10:34:02;46.60;;;18.13;;
43626;SDS011;29217;52.586;13.442;2023-02-08T10:36:30;45.55;;;16.40;;
43626;SDS011;29217;52.586;13.442;2023-02-08T10:38:57;33.08;;;14.70;;
43626;SDS011;29217;52.586;13.442;2023-02-08T10:41:25;32.90;;;14.05;;
43626;SDS011;29217;52.586;13.442;2023-02-08T10:44:01;42.03;;;15.27;;
43626;SDS011;29217;52.586;13.442;2023-02-08T10:51:28;33.85;;;15.18;;
43626;SDS011;29217;52.586;13.442;2023-02-08T10:53:55;43.58;;;16.27;;
43626;SDS011;29217;52.586;13.442;2023-02-08T10:58:51;40.75;;;16.98;;
43626;SDS011;29217;52.586;13.442;2023-02-08T11:01:17;41.83;;;16.88;;
43626;SDS011;29217;52.586;13.442;2023-02-08T11:06:27;42.10;;;16.10;;
43626;SDS011;29217;52.586;13.442;2023-02-08T11:08:54;34.33;;;15.52;;
43626;SDS011;29217;52.586;13.442;2023-02-08T11:11:20;30.90;;;15.43;;
43626;SDS011;29217;52.586;13.442;2023-02-08T11:13:47;36.08;;;13.68;;
43626;SDS011;29217;52.586;13.442;2023-02-08T11:16:23;41.58;;;16.85;;
43626;SDS011;29217;52.586;13.442;2023-02-08T11:18:50;38.45;;;16.13;;
43626;SDS011;29217;52.586;13.442;2023-02-08T11:21:36;34.60;;;15.15;;
43626;SDS011;29217;52.586;13.442;2023-02-08T11:24:26;34.67;;;14.98;;
43626;SDS011;29217;52.586;13.442;2023-02-08T11:26:50;33.20;;;13.27;;
43626;SDS011;29217;52.586;13.442;2023-02-08T11:34:37;40.75;;;16.70;;
43626;SDS011;29217;52.586;13.442;2023-02-08T11:37:12;43.47;;;16.35;;
43626;SDS011;29217;52.586;13.442;2023-02-08T11:39:41;37.35;;;15.45;;
43626;SDS011;29217;52.586;13.442;2023-02-08T11:42:14;40.63;;;15.98;;
43626;SDS011;29217;52.586;13.442;2023-02-08T11:44:43;37.22;;;15.73;;
43626;SDS011;29217;52.586;13.442;2023-02-08T11:47:10;43.53;;;15.98;;
43626;SDS011;29217;52.586;13.442;2023-02-08T11:49:40;39.35;;;17.10;;
43626;SDS011;29217;52.586;13.442;2023-02-08T11:52:19;36.45;;;15.07;;
43626;SDS011;29217;52.586;13.442;2023-02-08T11:54:46;38.92;;;15.98;;
43626;SDS011;29217;52.586;13.442;2023-02-08T11:57:13;31.35;;;14.75;;
43626;SDS011;29217;52.586;13.442;2023-02-08T11:59:39;32.40;;;14.45;;
43626;SDS011;29217;52.586;13.442;2023-02-08T12:04:50;33.10;;;15.10;;
43626;SDS011;29217;52.586;13.442;2023-02-08T12:07:19;36.13;;;15.30;;
43626;SDS011;29217;52.586;13.442;2023-02-08T12:17:54;37.70;;;16.45;;
43626;SDS011;29217;52.586;13.442;2023-02-08T12:23:01;31.35;;;14.93;;
43626;SDS011;29217;52.586;13.442;2023-02-08T12:25:36;34.45;;;15.35;;
43626;SDS011;29217;52.586;13.442;2023-02-08T12:28:09;35.53;;;16.20;;
43626;SDS011;29217;52.586;13.442;2023-02-08T12:33:19;39.08;;;16.02;;
43626;SDS011;29217;52.586;13.442;2023-02-08T12:54:41;38.05;;;16.08;;
43626;SDS011;29217;52.586;13.442;2023-02-08T12:57:09;32.20;;;15.43;;
43626;SDS011;29217;52.586;13.442;2023-02-08T12:59:41;31.55;;;15.55;;
43626;SDS011;29217;52.586;13.442;2023-02-08T13:02:17;33.33;;;14.95;;
43626;SDS011;29217;52.586;13.442;2023-02-08T13:04:44;30.00;;;14.23;;
43626;SDS011;29217;52.586;13.442;2023-02-08T13:07:19;34.47;;;15.45;;
43626;SDS011;29217;52.586;13.442;2023-02-08T13:09:48;31.48;;;14.50;;
43626;SDS011;29217;52.586;13.442;2023-02-08T13:12:18;31.75;;;14.55;;
43626;SDS011;29217;52.586;13.442;2023-02-08T13:14:49;30.17;;;15.07;;
43626;SDS011;29217;52.586;13.442;2023-02-08T13:17:29;35.65;;;15.43;;
43626;SDS011;29217;52.586;13.442;2023-02-08T13:20:01;35.63;;;15.13;;
43626;SDS011;29217;52.586;13.442;2023-02-08T13:22:31;27.95;;;14.80;;
43626;SDS011;29217;52.586;13.442;2023-02-08T13:24:59;31.88;;;14.93;;
43626;SDS011;29217;52.586;13.442;2023-02-08T13:27:26;34.10;;;16.23;;
43626;SDS011;29217;52.586;13.442;2023-02-08T13:29:52;28.90;;;14.23;;
43626;SDS011;29217;52.586;13.442;2023-02-08T13:34:49;32.70;;;14.23;;
43626;SDS011;29217;52.586;13.442;2023-02-08T13:37:24;34.78;;;14.70;;
43626;SDS011;29217;52.586;13.442;2023-02-08T13:40:25;31.85;;;14.73;;
43626;SDS011;29217;52.586;13.442;2023-02-08T13:43:00;31.02;;;13.75;;
43626;SDS011;29217;52.586;13.442;2023-02-08T13:45:28;35.85;;;14.63;;
43626;SDS011;29217;52.586;13.442;2023-02-08T13:48:14;34.67;;;15.90;;
43626;SDS011;29217;52.586;13.442;2023-02-08T13:53:07;35.78;;;16.17;;
43626;SDS011;29217;52.586;13.442;2023-02-08T13:55:50;39.55;;;16.80;;
43626;SDS011;29217;52.586;13.442;2023-02-08T14:01:21;38.15;;;15.57;;
43626;SDS011;29217;52.586;13.442;2023-02-08T14:06:56;30.48;;;14.35;;
43626;SDS011;29217;52.586;13.442;2023-02-08T14:10:02;29.65;;;13.70;;
43626;SDS011;29217;52.586;13.442;2023-02-08T14:12:20;36.55;;;14.82;;
43626;SDS011;29217;52.586;13.442;2023-02-08T14:17:32;30.75;;;13.73;;
43626;SDS011;29217;52.586;13.442;2023-02-08T14:20:03;30.65;;;14.45;;
43626;SDS011;29217;52.586;13.442;2023-02-08T14:22:32;32.50;;;14.50;;
43626;SDS011;29217;52.586;13.442;2023-02-08T14:27:29;33.30;;;14.55;;
43626;SDS011;29217;52.586;13.442;2023-02-08T14:29:58;33.28;;;14.63;;
43626;SDS011;29217;52.586;13.442;2023-02-08T14:32:25;33.55;;;14.70;;
43626;SDS011;29217;52.586;13.442;2023-02-08T14:34:59;34.20;;;15.75;;
43626;SDS011;29217;52.586;13.442;2023-02-08T14:37:27;31.40;;;13.30;;
43626;SDS011;29217;52.586;13.442;2023-02-08T14:42:54;32.03;;;13.60;;
43626;SDS011;29217;52.586;13.442;2023-02-08T14:45:34;32.78;;;13.48;;
43626;SDS011;29217;52.586;13.442;2023-02-08T14:56:32;28.38;;;13.35;;
43626;SDS011;29217;52.586;13.442;2023-02-08T14:59:03;27.90;;;12.80;;
43626;SDS011;29217;52.586;13.442;2023-02-08T15:01:47;31.33;;;13.85;;
43626;SDS011;29217;52.586;13.442;2023-02-08T15:04:14;27.92;;;14.10;;
43626;SDS011;29217;52.586;13.442;2023-02-08T15:09:25;26.83;;;13.10;;
43626;SDS011;29217;52.586;13.442;2023-02-08T15:11:56;32.88;;;14.32;;
43626;SDS011;29217;52.586;13.442;2023-02-08T15:14:23;30.65;;;13.00;;
43626;SDS011;29217;52.586;13.442;2023-02-08T15:16:50;35.10;;;14.07;;
43626;SDS011;29217;52.586;13.442;2023-02-08T15:19:23;33.70;;;14.38;;
43626;SDS011;29217;52.586;13.442;2023-02-08T15:21:50;33.30;;;13.43;;
43626;SDS011;29217;52.586;13.442;2023-02-08T15:24:17;29.08;;;13.27;;
43626;SDS011;29217;52.586;13.442;2023-02-08T15:26:53;32.58;;;13.15;;
43626;SDS011;29217;52.586;13.442;2023-02-08T15:29:22;31.10;;;13.30;;
43626;SDS011;29217;52.586;13.442;2023-02-08T15:31:48;31.52;;;13.52;;
43626;SDS011;29217;52.586;13.442;2023-02-08T15:34:15;28.80;;;13.43;;
43626;SDS011;29217;52.586;13.442;2023-02-08T15:36:44;34.30;;;14.82;;
43626;SDS011;29217;52.586;13.442;2023-02-08T15:39:18;33.70;;;14.48;;
43626;SDS011;29217;52.586;13.442;2023-02-08T15:41:47;28.20;;;13.00;;
43626;SDS011;29217;52.586;13.442;2023-02-08T15:46:42;30.98;;;13.90;;
43626;SDS011;29217;52.586;13.442;2023-02-08T15:49:17;28.20;;;13.48;;
43626;SDS011;29217;52.586;13.442;2023-02-08T15:51:45;34.38;;;13.57;;
43626;SDS011;29217;52.586;13.442;2023-02-08T15:54:16;33.00;;;14.10;;
43626;SDS011;29217;52.586;13.442;2023-02-08T15:56:46;34.28;;;14.60;;
43626;SDS011;29217;52.586;13.442;2023-02-08T15:59:17;33.55;;;13.98;;
43626;SDS011;29217;52.586;13.442;2023-02-08T16:01:45;30.48;;;14.18;;
43626;SDS011;29217;52.586;13.442;2023-02-08T16:04:11;28.67;;;13.10;;
43626;SDS011;29217;52.586;13.442;2023-02-08T16:06:38;35.30;;;13.55;;
43626;SDS011;29217;52.586;13.442;2023-02-08T16:09:05;31.05;;;13.82;;
43626;SDS011;29217;52.586;13.442;2023-02-08T16:11:31;30.85;;;13.10;;
43626;SDS011;29217;52.586;13.442;2023-02-08T16:13:58;27.50;;;11.85;;
43626;SDS011;29217;52.586;13.442;2023-02-08T16:18:58;29.40;;;13.18;;
43626;SDS011;29217;52.586;13.442;2023-02-08T16:23:52;28.25;;;12.57;;
43626;SDS011;29217;52.586;13.442;2023-02-08T16:26:28;28.02;;;11.07;;
43626;SDS011;29217;52.586;13.442;2023-02-08T16:29:00;31.88;;;12.70;;
43626;SDS011;29217;52.586;13.442;2023-02-08T16:31:28;28.90;;;12.35;;
43626;SDS011;29217;52.586;13.442;2023-02-08T16:34:01;28.40;;;12.18;;
43626;SDS011;29217;52.586;13.442;2023-02-08T16:36:33;29.02;;;12.13;;
43626;SDS011;29217;52.586;13.442;2023-02-08T16:46:48;33.13;;;13.88;;
43626;SDS011;29217;52.586;13.442;2023-02-08T16:49:14;35.05;;;13.55;;